KFBG/FBG METAR and TAF weather

Enter ICAO airport designator
Station Type Date Time Source
KFBG METAR 2019/10/21 03:56 UTC NOAA

KFBG 210356Z AUTO 34004KT 10SM CLR 16/16 A2996 RMK AO2 SLP148 T01560156


Station Type Date Time Source
KFBG Decoded METAR 2019/10/21 03:56 UTC NOAA

Fort Bragg / Simmons Army Airfield, NC, United States (KFBG) 35-08N 078-56W 74M
Oct 20, 2019 - 11:56 PM EDT / 2019.10.21 0356 UTC
Wind: from the NNW (340 degrees) at 5 MPH (4 KT):0
Visibility: 10 mile(s):0
Sky conditions: clear
Temperature: 60.1 F (15.6 C)
Dew Point: 60.1 F (15.6 C)
Relative Humidity: 100%
Pressure (altimeter): 29.96 in. Hg (1014 hPa)
ob: KFBG 210356Z AUTO 34004KT 10SM CLR 16/16 A2996 RMK AO2 SLP148 T01560156
cycle: 4

Station Type Date Time Source
KFBG TAF 2019/10/21 04:36 UTC NOAA

TAF TAF
AMD KFBG 210430Z 2104/2207 36006KT 9999 SKC QNH2990INS
BECMG 2112/2113 02006KT 9999 SCT020 QNH2993INS
BECMG 2114/2115 03009KT 9999 BKN010 OVC020 QNH2996INS
BECMG 2116/2117 06009KT 9999 BKN015 OVC030 QNH2992INS
BECMG 2118/2119 09009KT 9999 SCT020 BKN050 QNH2988INS
BECMG 2202/2203 12009KT 9999 SCT015 BKN100 OVC200 QNH2983INS TX22/2121Z TN15/2111Z

Example: see airport list